sensor_id;sensor_type;location;lat;lon;timestamp;temperature;humidity
53880;DHT22;39791;53.184;5.486;2023-08-30T00:02:04;17.60;92.20
53880;DHT22;39791;53.184;5.486;2023-08-30T00:04:30;17.50;41.80
53880;DHT22;39791;53.184;5.486;2023-08-30T00:06:56;17.80;32.70
53880;DHT22;39791;53.184;5.486;2023-08-30T00:09:21;17.30;61.40
53880;DHT22;39791;53.184;5.486;2023-08-30T00:11:47;17.70;95.80
53880;DHT22;39791;53.184;5.486;2023-08-30T00:14:12;17.40;99.90
53880;DHT22;39791;53.184;5.486;2023-08-30T00:16:38;17.20;99.90
53880;DHT22;39791;53.184;5.486;2023-08-30T00:19:04;17.30;99.90
53880;DHT22;39791;53.184;5.486;2023-08-30T00:21:29;17.20;99.90
53880;DHT22;39791;53.184;5.486;2023-08-30T00:23:55;17.20;99.90
53880;DHT22;39791;53.184;5.486;2023-08-30T00:26:21;17.10;99.90
53880;DHT22;39791;53.184;5.486;2023-08-30T00:28:47;17.20;99.90
53880;DHT22;39791;53.184;5.486;2023-08-30T00:31:12;17.10;1.00
53880;DHT22;39791;53.184;5.486;2023-08-30T00:33:38;17.00;1.00
53880;DHT22;39791;53.184;5.486;2023-08-30T00:36:03;17.00;45.80
53880;DHT22;39791;53.184;5.486;2023-08-30T00:38:30;17.10;97.80
53880;DHT22;39791;53.184;5.486;2023-08-30T00:40:58;17.20;91.90
53880;DHT22;39791;53.184;5.486;2023-08-30T00:43:23;17.30;44.10
53880;DHT22;39791;53.184;5.486;2023-08-30T00:45:49;16.90;5.60
53880;DHT22;39791;53.184;5.486;2023-08-30T00:48:16;16.90;1.00
53880;DHT22;39791;53.184;5.486;2023-08-30T00:50:44;16.70;1.00
53880;DHT22;39791;53.184;5.486;2023-08-30T00:53:10;16.70;30.40
53880;DHT22;39791;53.184;5.486;2023-08-30T00:55:37;16.70;56.40
53880;DHT22;39791;53.184;5.486;2023-08-30T00:58:03;16.80;62.00
53880;DHT22;39791;53.184;5.486;2023-08-30T01:00:33;16.80;93.50
53880;DHT22;39791;53.184;5.486;2023-08-30T01:02:58;16.80;99.90
53880;DHT22;39791;53.184;5.486;2023-08-30T01:05:24;16.70;99.90
53880;DHT22;39791;53.184;5.486;2023-08-30T01:07:52;16.80;99.90
53880;DHT22;39791;53.184;5.486;2023-08-30T01:10:22;16.80;99.90
53880;DHT22;39791;53.184;5.486;2023-08-30T01:12:54;16.80;99.90
53880;DHT22;39791;53.184;5.486;2023-08-30T01:15:25;16.90;99.90
53880;DHT22;39791;53.184;5.486;2023-08-30T01:17:52;16.70;99.90
53880;DHT22;39791;53.184;5.486;2023-08-30T01:20:19;16.80;99.90
53880;DHT22;39791;53.184;5.486;2023-08-30T01:23:19;16.70;1.00
53880;DHT22;39791;53.184;5.486;2023-08-30T01:28:27;16.70;1.00
53880;DHT22;39791;53.184;5.486;2023-08-30T01:30:55;16.60;1.00
53880;DHT22;39791;53.184;5.486;2023-08-30T01:33:21;16.60;1.00
53880;DHT22;39791;53.184;5.486;2023-08-30T01:35:48;16.50;1.00
53880;DHT22;39791;53.184;5.486;2023-08-30T01:38:14;16.60;1.00
53880;DHT22;39791;53.184;5.486;2023-08-30T01:40:42;16.40;1.00
53880;DHT22;39791;53.184;5.486;2023-08-30T01:43:09;16.20;27.90
53880;DHT22;39791;53.184;5.486;2023-08-30T01:45:39;16.10;99.90
53880;DHT22;39791;53.184;5.486;2023-08-30T01:48:08;16.10;99.90
53880;DHT22;39791;53.184;5.486;2023-08-30T01:50:34;15.90;1.00
53880;DHT22;39791;53.184;5.486;2023-08-30T01:53:01;15.70;69.40
53880;DHT22;39791;53.184;5.486;2023-08-30T01:55:28;16.10;99.90
53880;DHT22;39791;53.184;5.486;2023-08-30T01:57:55;16.20;1.00
53880;DHT22;39791;53.184;5.486;2023-08-30T02:00:20;16.10;58.10
53880;DHT22;39791;53.184;5.486;2023-08-30T02:02:47;16.50;99.90
53880;DHT22;39791;53.184;5.486;2023-08-30T02:05:13;17.10;99.90
53880;DHT22;39791;53.184;5.486;2023-08-30T02:07:50;16.70;1.00
53880;DHT22;39791;53.184;5.486;2023-08-30T02:10:48;16.90;1.00
53880;DHT22;39791;53.184;5.486;2023-08-30T02:13:07;17.20;26.30
53880;DHT22;39791;53.184;5.486;2023-08-30T02:15:35;17.10;78.70
53880;DHT22;39791;53.184;5.486;2023-08-30T02:18:03;17.30;95.80
53880;DHT22;39791;53.184;5.486;2023-08-30T02:20:30;17.40;97.80
53880;DHT22;39791;53.184;5.486;2023-08-30T02:22:59;17.20;93.60
53880;DHT22;39791;53.184;5.486;2023-08-30T02:25:25;17.40;84.70
53880;DHT22;39791;53.184;5.486;2023-08-30T02:27:51;17.20;83.40
53880;DHT22;39791;53.184;5.486;2023-08-30T02:30:17;17.10;82.30
53880;DHT22;39791;53.184;5.486;2023-08-30T02:32:42;17.20;92.70
53880;DHT22;39791;53.184;5.486;2023-08-30T02:35:08;17.30;99.90
53880;DHT22;39791;53.184;5.486;2023-08-30T02:37:34;17.10;99.90
53880;DHT22;39791;53.184;5.486;2023-08-30T02:39:59;17.40;99.90
53880;DHT22;39791;53.184;5.486;2023-08-30T02:42:25;17.30;99.90
53880;DHT22;39791;53.184;5.486;2023-08-30T02:44:52;17.40;99.90
53880;DHT22;39791;53.184;5.486;2023-08-30T02:47:17;17.20;99.90
53880;DHT22;39791;53.184;5.486;2023-08-30T02:49:43;17.70;99.90
53880;DHT22;39791;53.184;5.486;2023-08-30T02:52:08;17.70;99.90
53880;DHT22;39791;53.184;5.486;2023-08-30T02:54:34;17.80;99.90
53880;DHT22;39791;53.184;5.486;2023-08-30T02:57:00;17.60;99.90
53880;DHT22;39791;53.184;5.486;2023-08-30T02:59:25;17.90;99.90
53880;DHT22;39791;53.184;5.486;2023-08-30T03:01:51;17.60;99.90
53880;DHT22;39791;53.184;5.486;2023-08-30T03:04:16;17.50;99.90
53880;DHT22;39791;53.184;5.486;2023-08-30T03:06:42;18.00;99.90
53880;DHT22;39791;53.184;5.486;2023-08-30T03:09:07;17.60;99.90
53880;DHT22;39791;53.184;5.486;2023-08-30T03:11:33;18.00;99.90
53880;DHT22;39791;53.184;5.486;2023-08-30T03:13:58;17.50;99.90
53880;DHT22;39791;53.184;5.486;2023-08-30T03:16:24;17.80;99.90
53880;DHT22;39791;53.184;5.486;2023-08-30T03:18:50;17.50;99.90
53880;DHT22;39791;53.184;5.486;2023-08-30T03:21:15;18.20;99.90
53880;DHT22;39791;53.184;5.486;2023-08-30T03:23:41;18.20;99.90
53880;DHT22;39791;53.184;5.486;2023-08-30T03:28:33;17.40;99.90
53880;DHT22;39791;53.184;5.486;2023-08-30T03:30:59;17.70;99.90
53880;DHT22;39791;53.184;5.486;2023-08-30T03:33:24;17.70;99.90
53880;DHT22;39791;53.184;5.486;2023-08-30T03:35:50;17.30;99.90
53880;DHT22;39791;53.184;5.486;2023-08-30T03:38:15;17.70;99.90
53880;DHT22;39791;53.184;5.486;2023-08-30T03:40:41;17.20;99.90
53880;DHT22;39791;53.184;5.486;2023-08-30T03:43:07;17.50;99.90
53880;DHT22;39791;53.184;5.486;2023-08-30T03:45:36;17.60;99.90
53880;DHT22;39791;53.184;5.486;2023-08-30T03:48:03;17.30;99.90
53880;DHT22;39791;53.184;5.486;2023-08-30T03:50:29;17.90;99.90
53880;DHT22;39791;53.184;5.486;2023-08-30T03:52:54;18.00;99.90
53880;DHT22;39791;53.184;5.486;2023-08-30T03:55:20;17.70;99.90
53880;DHT22;39791;53.184;5.486;2023-08-30T03:57:46;17.80;99.90
53880;DHT22;39791;53.184;5.486;2023-08-30T04:00:12;17.20;99.90
53880;DHT22;39791;53.184;5.486;2023-08-30T04:02:37;18.00;99.90
53880;DHT22;39791;53.184;5.486;2023-08-30T04:05:03;17.30;99.90
53880;DHT22;39791;53.184;5.486;2023-08-30T04:07:33;18.40;99.90
53880;DHT22;39791;53.184;5.486;2023-08-30T04:09:59;17.40;99.90
53880;DHT22;39791;53.184;5.486;2023-08-30T04:12:24;18.60;99.90
53880;DHT22;39791;53.184;5.486;2023-08-30T04:14:50;18.60;99.90
53880;DHT22;39791;53.184;5.486;2023-08-30T04:17:15;17.80;99.90
53880;DHT22;39791;53.184;5.486;2023-08-30T04:19:41;18.60;99.90
53880;DHT22;39791;53.184;5.486;2023-08-30T04:22:06;17.60;99.90
53880;DHT22;39791;53.184;5.486;2023-08-30T04:24:32;18.60;99.90
53880;DHT22;39791;53.184;5.486;2023-08-30T04:26:57;18.10;99.90
53880;DHT22;39791;53.184;5.486;2023-08-30T04:29:23;18.10;99.90
53880;DHT22;39791;53.184;5.486;2023-08-30T04:31:49;17.80;99.90
53880;DHT22;39791;53.184;5.486;2023-08-30T04:34:14;18.70;99.90
53880;DHT22;39791;53.184;5.486;2023-08-30T04:36:41;18.60;99.90
53880;DHT22;39791;53.184;5.486;2023-08-30T04:39:07;19.00;99.90
53880;DHT22;39791;53.184;5.486;2023-08-30T04:41:32;17.60;99.90
53880;DHT22;39791;53.184;5.486;2023-08-30T04:43:59;18.90;99.90
53880;DHT22;39791;53.184;5.486;2023-08-30T04:46:24;18.70;99.90
53880;DHT22;39791;53.184;5.486;2023-08-30T04:48:50;18.70;99.90
53880;DHT22;39791;53.184;5.486;2023-08-30T04:51:15;17.80;99.90
53880;DHT22;39791;53.184;5.486;2023-08-30T04:53:41;18.80;99.90
53880;DHT22;39791;53.184;5.486;2023-08-30T04:56:14;17.50;99.90
53880;DHT22;39791;53.184;5.486;2023-08-30T04:58:40;17.60;99.90
53880;DHT22;39791;53.184;5.486;2023-08-30T05:01:06;18.60;99.90
53880;DHT22;39791;53.184;5.486;2023-08-30T05:03:32;18.10;99.90
53880;DHT22;39791;53.184;5.486;2023-08-30T05:05:58;18.70;99.90
53880;DHT22;39791;53.184;5.486;2023-08-30T05:08:23;17.90;99.90
53880;DHT22;39791;53.184;5.486;2023-08-30T05:10:49;18.80;99.90
53880;DHT22;39791;53.184;5.486;2023-08-30T05:13:16;17.90;99.90
53880;DHT22;39791;53.184;5.486;2023-08-30T05:15:42;18.60;99.90
53880;DHT22;39791;53.184;5.486;2023-08-30T05:18:07;17.80;99.90
53880;DHT22;39791;53.184;5.486;2023-08-30T05:20:33;18.80;99.90
53880;DHT22;39791;53.184;5.486;2023-08-30T05:22:58;18.00;99.90
53880;DHT22;39791;53.184;5.486;2023-08-30T05:25:26;18.70;99.90
53880;DHT22;39791;53.184;5.486;2023-08-30T05:27:51;18.20;99.90
53880;DHT22;39791;53.184;5.486;2023-08-30T05:30:17;18.00;99.90
53880;DHT22;39791;53.184;5.486;2023-08-30T05:32:42;18.60;99.90
53880;DHT22;39791;53.184;5.486;2023-08-30T05:35:08;18.10;99.90
53880;DHT22;39791;53.184;5.486;2023-08-30T05:37:34;17.70;99.90
53880;DHT22;39791;53.184;5.486;2023-08-30T05:39:59;17.80;99.90
53880;DHT22;39791;53.184;5.486;2023-08-30T05:42:25;17.70;99.90
53880;DHT22;39791;53.184;5.486;2023-08-30T05:44:50;17.70;99.90
53880;DHT22;39791;53.184;5.486;2023-08-30T05:47:16;17.70;99.90
53880;DHT22;39791;53.184;5.486;2023-08-30T05:49:44;17.80;99.90
53880;DHT22;39791;53.184;5.486;2023-08-30T05:52:10;17.90;99.90
53880;DHT22;39791;53.184;5.486;2023-08-30T05:54:35;17.60;99.90
53880;DHT22;39791;53.184;5.486;2023-08-30T05:57:01;17.90;99.90
53880;DHT22;39791;53.184;5.486;2023-08-30T05:59:27;18.80;99.90
53880;DHT22;39791;53.184;5.486;2023-08-30T06:01:53;18.50;99.90
53880;DHT22;39791;53.184;5.486;2023-08-30T06:04:19;17.60;99.90
53880;DHT22;39791;53.184;5.486;2023-08-30T06:06:45;17.60;99.90
53880;DHT22;39791;53.184;5.486;2023-08-30T06:09:11;18.90;99.90
53880;DHT22;39791;53.184;5.486;2023-08-30T06:11:38;18.70;99.90
53880;DHT22;39791;53.184;5.486;2023-08-30T06:14:04;19.70;99.90
53880;DHT22;39791;53.184;5.486;2023-08-30T06:16:29;18.40;99.90
53880;DHT22;39791;53.184;5.486;2023-08-30T06:18:55;19.20;99.90
53880;DHT22;39791;53.184;5.486;2023-08-30T06:21:21;18.20;99.90
53880;DHT22;39791;53.184;5.486;2023-08-30T06:23:46;19.70;99.90
53880;DHT22;39791;53.184;5.486;2023-08-30T06:26:12;19.40;99.90
53880;DHT22;39791;53.184;5.486;2023-08-30T06:28:37;19.00;99.90
53880;DHT22;39791;53.184;5.486;2023-08-30T06:31:03;19.90;99.90
53880;DHT22;39791;53.184;5.486;2023-08-30T06:33:28;19.70;99.90
53880;DHT22;39791;53.184;5.486;2023-08-30T06:35:54;19.20;99.90
53880;DHT22;39791;53.184;5.486;2023-08-30T06:38:21;19.20;99.90
53880;DHT22;39791;53.184;5.486;2023-08-30T06:40:47;20.20;99.90
53880;DHT22;39791;53.184;5.486;2023-08-30T06:43:13;19.20;99.90
53880;DHT22;39791;53.184;5.486;2023-08-30T06:45:39;20.10;99.90
53880;DHT22;39791;53.184;5.486;2023-08-30T06:48:06;19.90;99.90
53880;DHT22;39791;53.184;5.486;2023-08-30T06:50:33;19.20;99.90
53880;DHT22;39791;53.184;5.486;2023-08-30T06:52:58;19.90;99.90
53880;DHT22;39791;53.184;5.486;2023-08-30T06:55:24;19.60;99.90
53880;DHT22;39791;53.184;5.486;2023-08-30T06:57:50;20.10;99.90
53880;DHT22;39791;53.184;5.486;2023-08-30T07:00:16;20.00;99.90
53880;DHT22;39791;53.184;5.486;2023-08-30T07:02:42;19.50;99.90
53880;DHT22;39791;53.184;5.486;2023-08-30T07:05:13;19.30;99.90
53880;DHT22;39791;53.184;5.486;2023-08-30T07:07:39;19.40;99.90
53880;DHT22;39791;53.184;5.486;2023-08-30T07:10:06;19.50;99.90
53880;DHT22;39791;53.184;5.486;2023-08-30T07:12:31;19.50;99.90
53880;DHT22;39791;53.184;5.486;2023-08-30T07:14:57;20.00;99.90
53880;DHT22;39791;53.184;5.486;2023-08-30T07:17:22;20.20;99.90
53880;DHT22;39791;53.184;5.486;2023-08-30T07:19:49;19.70;99.90
53880;DHT22;39791;53.184;5.486;2023-08-30T07:22:15;19.60;99.90
53880;DHT22;39791;53.184;5.486;2023-08-30T07:24:44;20.00;99.90
53880;DHT22;39791;53.184;5.486;2023-08-30T07:27:10;20.10;99.90
53880;DHT22;39791;53.184;5.486;2023-08-30T07:29:38;19.70;99.90
53880;DHT22;39791;53.184;5.486;2023-08-30T07:32:05;20.20;99.90
53880;DHT22;39791;53.184;5.486;2023-08-30T07:34:31;19.60;99.90
53880;DHT22;39791;53.184;5.486;2023-08-30T07:36:56;20.20;99.90
53880;DHT22;39791;53.184;5.486;2023-08-30T07:39:22;19.70;99.90
53880;DHT22;39791;53.184;5.486;2023-08-30T07:41:47;19.50;99.90
53880;DHT22;39791;53.184;5.486;2023-08-30T07:44:13;19.50;99.90
53880;DHT22;39791;53.184;5.486;2023-08-30T07:46:38;19.60;99.90
53880;DHT22;39791;53.184;5.486;2023-08-30T07:49:04;19.70;99.90
53880;DHT22;39791;53.184;5.486;2023-08-30T07:51:30;19.80;99.90
53880;DHT22;39791;53.184;5.486;2023-08-30T07:53:55;19.70;99.90
53880;DHT22;39791;53.184;5.486;2023-08-30T07:56:21;19.70;99.90
53880;DHT22;39791;53.184;5.486;2023-08-30T07:58:47;19.60;99.90
53880;DHT22;39791;53.184;5.486;2023-08-30T08:01:12;19.70;99.90
53880;DHT22;39791;53.184;5.486;2023-08-30T08:03:38;19.60;99.90
53880;DHT22;39791;53.184;5.486;2023-08-30T08:06:03;19.70;99.90
53880;DHT22;39791;53.184;5.486;2023-08-30T08:08:29;19.60;99.90
53880;DHT22;39791;53.184;5.486;2023-08-30T08:10:55;19.50;99.90
53880;DHT22;39791;53.184;5.486;2023-08-30T08:13:20;19.50;99.90
53880;DHT22;39791;53.184;5.486;2023-08-30T08:15:46;19.80;99.90
53880;DHT22;39791;53.184;5.486;2023-08-30T08:18:11;19.30;99.90
53880;DHT22;39791;53.184;5.486;2023-08-30T08:20:37;19.30;99.90
53880;DHT22;39791;53.184;5.486;2023-08-30T08:23:04;19.50;99.90
53880;DHT22;39791;53.184;5.486;2023-08-30T08:25:30;19.10;99.90
53880;DHT22;39791;53.184;5.486;2023-08-30T08:27:55;19.40;99.90
53880;DHT22;39791;53.184;5.486;2023-08-30T08:30:21;19.50;99.90
53880;DHT22;39791;53.184;5.486;2023-08-30T08:32:47;19.40;99.90
53880;DHT22;39791;53.184;5.486;2023-08-30T08:35:13;18.80;99.90
53880;DHT22;39791;53.184;5.486;2023-08-30T08:37:40;19.30;99.90
53880;DHT22;39791;53.184;5.486;2023-08-30T08:40:05;19.20;99.90
53880;DHT22;39791;53.184;5.486;2023-08-30T08:42:34;19.20;99.90
53880;DHT22;39791;53.184;5.486;2023-08-30T08:45:02;18.50;99.90
53880;DHT22;39791;53.184;5.486;2023-08-30T08:47:30;18.60;99.90
53880;DHT22;39791;53.184;5.486;2023-08-30T08:49:56;18.50;99.90
53880;DHT22;39791;53.184;5.486;2023-08-30T08:52:23;18.90;99.90
53880;DHT22;39791;53.184;5.486;2023-08-30T08:54:50;18.70;99.90
53880;DHT22;39791;53.184;5.486;2023-08-30T08:57:15;18.80;99.90
53880;DHT22;39791;53.184;5.486;2023-08-30T08:59:41;18.90;99.90
53880;DHT22;39791;53.184;5.486;2023-08-30T09:02:09;19.20;99.90
53880;DHT22;39791;53.184;5.486;2023-08-30T09:04:39;19.10;99.90
53880;DHT22;39791;53.184;5.486;2023-08-30T09:07:05;19.20;99.90
53880;DHT22;39791;53.184;5.486;2023-08-30T09:09:30;18.30;99.90
53880;DHT22;39791;53.184;5.486;2023-08-30T09:11:56;18.70;99.90
53880;DHT22;39791;53.184;5.486;2023-08-30T09:14:22;19.20;99.90
53880;DHT22;39791;53.184;5.486;2023-08-30T09:16:58;19.20;99.90
53880;DHT22;39791;53.184;5.486;2023-08-30T09:19:25;18.60;99.90
53880;DHT22;39791;53.184;5.486;2023-08-30T09:21:55;18.40;99.90
53880;DHT22;39791;53.184;5.486;2023-08-30T09:24:21;18.30;99.90
53880;DHT22;39791;53.184;5.486;2023-08-30T09:26:52;19.00;99.90
53880;DHT22;39791;53.184;5.486;2023-08-30T09:29:19;18.90;99.90
53880;DHT22;39791;53.184;5.486;2023-08-30T09:31:45;18.40;99.90
53880;DHT22;39791;53.184;5.486;2023-08-30T09:34:11;18.40;99.90
53880;DHT22;39791;53.184;5.486;2023-08-30T09:36:38;18.30;99.90
53880;DHT22;39791;53.184;5.486;2023-08-30T09:39:11;18.70;99.90
53880;DHT22;39791;53.184;5.486;2023-08-30T09:41:41;19.40;99.90
53880;DHT22;39791;53.184;5.486;2023-08-30T09:44:13;18.90;99.90
53880;DHT22;39791;53.184;5.486;2023-08-30T09:46:46;19.40;99.90
53880;DHT22;39791;53.184;5.486;2023-08-30T09:49:12;19.50;99.90
53880;DHT22;39791;53.184;5.486;2023-08-30T09:51:41;18.60;99.90
53880;DHT22;39791;53.184;5.486;2023-08-30T09:54:14;19.20;99.90
53880;DHT22;39791;53.184;5.486;2023-08-30T09:56:42;19.90;99.90
53880;DHT22;39791;53.184;5.486;2023-08-30T09:59:13;18.80;99.90
53880;DHT22;39791;53.184;5.486;2023-08-30T10:01:41;19.60;99.90
53880;DHT22;39791;53.184;5.486;2023-08-30T10:04:10;19.10;99.90
53880;DHT22;39791;53.184;5.486;2023-08-30T10:06:37;19.10;99.90
53880;DHT22;39791;53.184;5.486;2023-08-30T10:09:03;19.80;99.90
53880;DHT22;39791;53.184;5.486;2023-08-30T10:11:32;19.10;99.90
53880;DHT22;39791;53.184;5.486;2023-08-30T10:13:59;20.10;99.90
53880;DHT22;39791;53.184;5.486;2023-08-30T10:16:26;19.80;99.90
53880;DHT22;39791;53.184;5.486;2023-08-30T10:19:01;19.50;99.90
53880;DHT22;39791;53.184;5.486;2023-08-30T10:21:29;19.30;99.90
53880;DHT22;39791;53.184;5.486;2023-08-30T10:23:55;19.50;99.90
53880;DHT22;39791;53.184;5.486;2023-08-30T10:26:26;20.00;99.90
53880;DHT22;39791;53.184;5.486;2023-08-30T10:28:54;20.00;99.90
53880;DHT22;39791;53.184;5.486;2023-08-30T10:31:20;20.10;99.90
53880;DHT22;39791;53.184;5.486;2023-08-30T10:34:15;20.20;99.90
53880;DHT22;39791;53.184;5.486;2023-08-30T10:36:43;20.20;99.90
53880;DHT22;39791;53.184;5.486;2023-08-30T10:39:13;19.40;99.90
53880;DHT22;39791;53.184;5.486;2023-08-30T10:41:56;19.70;99.90
53880;DHT22;39791;53.184;5.486;2023-08-30T10:44:23;20.10;99.90
53880;DHT22;39791;53.184;5.486;2023-08-30T10:46:55;19.50;99.90
53880;DHT22;39791;53.184;5.486;2023-08-30T10:49:21;20.50;99.90
53880;DHT22;39791;53.184;5.486;2023-08-30T10:51:57;19.90;99.90
53880;DHT22;39791;53.184;5.486;2023-08-30T10:54:24;20.10;99.90
53880;DHT22;39791;53.184;5.486;2023-08-30T10:56:57;20.10;99.90
53880;DHT22;39791;53.184;5.486;2023-08-30T10:59:26;19.50;99.90
53880;DHT22;39791;53.184;5.486;2023-08-30T11:01:52;20.50;99.90
53880;DHT22;39791;53.184;5.486;2023-08-30T11:04:19;19.60;99.90
53880;DHT22;39791;53.184;5.486;2023-08-30T11:06:46;20.80;99.90
53880;DHT22;39791;53.184;5.486;2023-08-30T11:09:13;20.10;99.90
53880;DHT22;39791;53.184;5.486;2023-08-30T11:11:39;20.80;99.90
53880;DHT22;39791;53.184;5.486;2023-08-30T11:14:09;20.90;99.90
53880;DHT22;39791;53.184;5.486;2023-08-30T11:16:35;20.40;99.90
53880;DHT22;39791;53.184;5.486;2023-08-30T11:19:05;21.20;99.90
53880;DHT22;39791;53.184;5.486;2023-08-30T11:21:54;20.10;99.90
53880;DHT22;39791;53.184;5.486;2023-08-30T11:24:18;20.90;99.90
53880;DHT22;39791;53.184;5.486;2023-08-30T11:26:44;20.50;99.90
53880;DHT22;39791;53.184;5.486;2023-08-30T11:29:10;20.50;99.90
53880;DHT22;39791;53.184;5.486;2023-08-30T11:31:35;21.20;99.90
53880;DHT22;39791;53.184;5.486;2023-08-30T11:34:01;20.80;99.90
53880;DHT22;39791;53.184;5.486;2023-08-30T11:36:30;20.60;99.90
53880;DHT22;39791;53.184;5.486;2023-08-30T11:38:56;20.60;99.90
53880;DHT22;39791;53.184;5.486;2023-08-30T11:41:23;20.90;99.90
53880;DHT22;39791;53.184;5.486;2023-08-30T11:43:50;21.10;99.90
53880;DHT22;39791;53.184;5.486;2023-08-30T11:46:18;20.40;99.90
53880;DHT22;39791;53.184;5.486;2023-08-30T11:48:45;21.10;99.90
53880;DHT22;39791;53.184;5.486;2023-08-30T11:51:11;21.20;99.90
53880;DHT22;39791;53.184;5.486;2023-08-30T11:53:38;20.40;99.90
53880;DHT22;39791;53.184;5.486;2023-08-30T11:56:07;20.90;99.90
53880;DHT22;39791;53.184;5.486;2023-08-30T11:58:34;20.90;99.90
53880;DHT22;39791;53.184;5.486;2023-08-30T12:01:00;20.60;99.90
53880;DHT22;39791;53.184;5.486;2023-08-30T12:03:30;21.30;99.90
53880;DHT22;39791;53.184;5.486;2023-08-30T12:05:56;20.70;99.90
53880;DHT22;39791;53.184;5.486;2023-08-30T12:08:28;21.50;99.90
53880;DHT22;39791;53.184;5.486;2023-08-30T12:10:56;21.40;99.90
53880;DHT22;39791;53.184;5.486;2023-08-30T12:13:23;21.70;99.90
53880;DHT22;39791;53.184;5.486;2023-08-30T12:15:49;21.40;99.90
53880;DHT22;39791;53.184;5.486;2023-08-30T12:18:15;21.70;99.90
53880;DHT22;39791;53.184;5.486;2023-08-30T12:20:51;21.60;99.90
53880;DHT22;39791;53.184;5.486;2023-08-30T12:23:25;21.20;99.90
53880;DHT22;39791;53.184;5.486;2023-08-30T12:26:17;21.10;99.90
53880;DHT22;39791;53.184;5.486;2023-08-30T12:28:42;21.10;99.90
53880;DHT22;39791;53.184;5.486;2023-08-30T12:31:10;21.50;99.90
53880;DHT22;39791;53.184;5.486;2023-08-30T12:33:36;21.50;99.90
53880;DHT22;39791;53.184;5.486;2023-08-30T12:36:02;21.80;99.90
53880;DHT22;39791;53.184;5.486;2023-08-30T12:38:29;21.10;99.90
53880;DHT22;39791;53.184;5.486;2023-08-30T12:40:55;21.30;99.90
53880;DHT22;39791;53.184;5.486;2023-08-30T12:43:22;21.60;99.90
53880;DHT22;39791;53.184;5.486;2023-08-30T12:45:48;21.20;99.90
53880;DHT22;39791;53.184;5.486;2023-08-30T12:48:16;21.40;99.90
53880;DHT22;39791;53.184;5.486;2023-08-30T12:50:43;21.30;99.90
53880;DHT22;39791;53.184;5.486;2023-08-30T12:53:09;21.40;99.90
53880;DHT22;39791;53.184;5.486;2023-08-30T12:55:35;21.30;99.90
53880;DHT22;39791;53.184;5.486;2023-08-30T12:58:01;21.10;99.90
53880;DHT22;39791;53.184;5.486;2023-08-30T13:00:28;21.10;99.90
53880;DHT22;39791;53.184;5.486;2023-08-30T13:02:53;21.20;99.90
53880;DHT22;39791;53.184;5.486;2023-08-30T13:05:20;21.70;99.90
53880;DHT22;39791;53.184;5.486;2023-08-30T13:07:47;21.40;99.90
53880;DHT22;39791;53.184;5.486;2023-08-30T13:10:13;21.60;99.90
53880;DHT22;39791;53.184;5.486;2023-08-30T13:12:40;21.80;99.90
53880;DHT22;39791;53.184;5.486;2023-08-30T13:15:06;21.90;99.90
53880;DHT22;39791;53.184;5.486;2023-08-30T13:17:33;22.00;99.90
53880;DHT22;39791;53.184;5.486;2023-08-30T13:19:58;22.10;99.90
53880;DHT22;39791;53.184;5.486;2023-08-30T13:22:25;22.00;99.90
53880;DHT22;39791;53.184;5.486;2023-08-30T13:24:51;22.10;1.00
53880;DHT22;39791;53.184;5.486;2023-08-30T13:27:17;22.20;99.90
53880;DHT22;39791;53.184;5.486;2023-08-30T13:29:43;22.20;1.00
53880;DHT22;39791;53.184;5.486;2023-08-30T13:32:09;22.30;99.90
53880;DHT22;39791;53.184;5.486;2023-08-30T13:34:34;22.40;99.90
53880;DHT22;39791;53.184;5.486;2023-08-30T13:37:00;22.20;99.90
53880;DHT22;39791;53.184;5.486;2023-08-30T13:39:25;22.10;99.90
53880;DHT22;39791;53.184;5.486;2023-08-30T13:41:51;22.00;99.90
53880;DHT22;39791;53.184;5.486;2023-08-30T13:44:16;22.10;99.90
53880;DHT22;39791;53.184;5.486;2023-08-30T13:46:44;21.90;1.00
53880;DHT22;39791;53.184;5.486;2023-08-30T13:49:09;22.10;99.90
53880;DHT22;39791;53.184;5.486;2023-08-30T13:51:35;22.20;99.90
53880;DHT22;39791;53.184;5.486;2023-08-30T13:54:02;22.30;99.90
53880;DHT22;39791;53.184;5.486;2023-08-30T13:56:27;22.10;99.90
53880;DHT22;39791;53.184;5.486;2023-08-30T13:58:55;21.90;50.40
53880;DHT22;39791;53.184;5.486;2023-08-30T14:01:21;21.80;1.00
53880;DHT22;39791;53.184;5.486;2023-08-30T14:03:46;22.00;1.50
53880;DHT22;39791;53.184;5.486;2023-08-30T14:06:12;22.00;1.00
53880;DHT22;39791;53.184;5.486;2023-08-30T14:08:37;22.00;1.00
53880;DHT22;39791;53.184;5.486;2023-08-30T14:11:03;21.80;1.00
53880;DHT22;39791;53.184;5.486;2023-08-30T14:13:32;21.90;1.00
53880;DHT22;39791;53.184;5.486;2023-08-30T14:16:01;21.80;1.00
53880;DHT22;39791;53.184;5.486;2023-08-30T14:18:30;22.00;1.00
53880;DHT22;39791;53.184;5.486;2023-08-30T14:20:57;21.90;99.90
53880;DHT22;39791;53.184;5.486;2023-08-30T14:23:28;22.00;99.90
53880;DHT22;39791;53.184;5.486;2023-08-30T14:25:58;21.90;99.90
53880;DHT22;39791;53.184;5.486;2023-08-30T14:28:24;22.20;99.90
53880;DHT22;39791;53.184;5.486;2023-08-30T14:30:50;21.70;99.90
53880;DHT22;39791;53.184;5.486;2023-08-30T14:33:16;21.80;99.90
53880;DHT22;39791;53.184;5.486;2023-08-30T14:35:42;21.60;99.90
53880;DHT22;39791;53.184;5.486;2023-08-30T14:38:08;21.50;99.90
53880;DHT22;39791;53.184;5.486;2023-08-30T14:40:34;21.50;99.90
53880;DHT22;39791;53.184;5.486;2023-08-30T14:42:59;21.40;99.90
53880;DHT22;39791;53.184;5.486;2023-08-30T14:45:25;21.30;99.90
53880;DHT22;39791;53.184;5.486;2023-08-30T14:47:50;21.30;99.90
53880;DHT22;39791;53.184;5.486;2023-08-30T14:50:16;21.30;99.90
53880;DHT22;39791;53.184;5.486;2023-08-30T14:52:41;21.30;99.90
53880;DHT22;39791;53.184;5.486;2023-08-30T14:55:07;21.50;99.90
53880;DHT22;39791;53.184;5.486;2023-08-30T14:57:33;21.60;99.90
53880;DHT22;39791;53.184;5.486;2023-08-30T14:59:58;21.70;99.90
53880;DHT22;39791;53.184;5.486;2023-08-30T15:02:24;21.70;99.90
53880;DHT22;39791;53.184;5.486;2023-08-30T15:04:50;21.60;99.90
53880;DHT22;39791;53.184;5.486;2023-08-30T15:07:15;21.90;99.90
53880;DHT22;39791;53.184;5.486;2023-08-30T15:09:41;21.60;99.90
53880;DHT22;39791;53.184;5.486;2023-08-30T15:12:06;21.70;99.90
53880;DHT22;39791;53.184;5.486;2023-08-30T15:14:32;21.70;99.90
53880;DHT22;39791;53.184;5.486;2023-08-30T15:16:58;21.70;99.90
53880;DHT22;39791;53.184;5.486;2023-08-30T15:19:23;21.70;99.90
53880;DHT22;39791;53.184;5.486;2023-08-30T15:21:49;21.70;99.90
53880;DHT22;39791;53.184;5.486;2023-08-30T15:24:14;21.60;99.90
53880;DHT22;39791;53.184;5.486;2023-08-30T15:26:42;21.50;92.20
53880;DHT22;39791;53.184;5.486;2023-08-30T15:29:08;21.50;99.90
53880;DHT22;39791;53.184;5.486;2023-08-30T15:31:34;21.60;99.90
53880;DHT22;39791;53.184;5.486;2023-08-30T15:33:59;21.50;65.20
53880;DHT22;39791;53.184;5.486;2023-08-30T15:36:25;21.40;41.80